Terminal Aerodrome Forecast
Issued by NWS Duluth, MN

Home | Current Version | Previous Version | Text Only | Print | Product List | Glossary On
Versions: 1 2 3 4 5 6 7 8 9 10 11 12 13 14
000
FTUS43 KDLH 061100
TAFDLH
TAF
KDLH 061120Z 0612/0712 12007KT P6SM VCSH BKN015 OVC050
     FM061700 10010KT P6SM SCT025 OVC100
     FM062000 09014G22KT P6SM FEW030 BKN080
     FM070300 07009KT P6SM VCSH BKN035 WS020/18035KT
      TEMPO 0706/0709 5SM -RA BR OVC026
     FM071000 11003KT 6SM BR VCSH OVC013=

USA.gov is the U.S. government's official web portal to all federal, state and local government web resources and services.